sensor_id;sensor_type;location;lat;lon;timestamp;P1;durP1;ratioP1;P2;durP2;ratioP2
74363;SDS011;62797;49.740;10.154;2022-09-03T00:00:29;3.67;;;2.10;;
74363;SDS011;62797;49.740;10.154;2022-09-03T00:03:03;7.88;;;2.30;;
74363;SDS011;62797;49.740;10.154;2022-09-03T00:05:47;6.38;;;3.90;;
74363;SDS011;62797;49.740;10.154;2022-09-03T00:14:24;2.55;;;2.17;;
74363;SDS011;62797;49.740;10.154;2022-09-03T00:16:56;9.25;;;3.55;;
74363;SDS011;62797;49.740;10.154;2022-09-03T00:19:32;4.55;;;2.63;;
74363;SDS011;62797;49.740;10.154;2022-09-03T00:22:04;1.42;;;1.33;;
74363;SDS011;62797;49.740;10.154;2022-09-03T00:24:37;3.33;;;2.40;;
74363;SDS011;62797;49.740;10.154;2022-09-03T00:27:06;4.95;;;1.70;;
74363;SDS011;62797;49.740;10.154;2022-09-03T00:29:40;4.05;;;1.83;;
74363;SDS011;62797;49.740;10.154;2022-09-03T00:32:14;3.38;;;2.08;;
74363;SDS011;62797;49.740;10.154;2022-09-03T00:34:44;7.72;;;4.25;;
74363;SDS011;62797;49.740;10.154;2022-09-03T00:37:15;6.53;;;2.15;;
74363;SDS011;62797;49.740;10.154;2022-09-03T00:39:40;5.73;;;1.67;;
74363;SDS011;62797;49.740;10.154;2022-09-03T00:42:16;1.60;;;1.50;;
74363;SDS011;62797;49.740;10.154;2022-09-03T00:48:35;6.70;;;2.10;;
74363;SDS011;62797;49.740;10.154;2022-09-03T00:53:42;6.28;;;2.90;;
74363;SDS011;62797;49.740;10.154;2022-09-03T00:56:40;6.95;;;3.83;;
74363;SDS011;62797;49.740;10.154;2022-09-03T00:59:21;3.53;;;2.17;;
74363;SDS011;62797;49.740;10.154;2022-09-03T01:04:50;1.88;;;1.63;;
74363;SDS011;62797;49.740;10.154;2022-09-03T01:07:49;2.50;;;1.60;;
74363;SDS011;62797;49.740;10.154;2022-09-03T01:13:58;4.05;;;1.70;;
74363;SDS011;62797;49.740;10.154;2022-09-03T01:22:13;3.30;;;1.73;;
74363;SDS011;62797;49.740;10.154;2022-09-03T01:28:28;3.58;;;1.70;;
74363;SDS011;62797;49.740;10.154;2022-09-03T01:33:50;5.78;;;1.92;;
74363;SDS011;62797;49.740;10.154;2022-09-03T01:36:49;2.65;;;1.58;;
74363;SDS011;62797;49.740;10.154;2022-09-03T01:53:30;3.85;;;1.83;;
74363;SDS011;62797;49.740;10.154;2022-09-03T01:56:27;2.95;;;1.50;;
74363;SDS011;62797;49.740;10.154;2022-09-03T02:01:58;1.50;;;1.40;;
74363;SDS011;62797;49.740;10.154;2022-09-03T02:04:30;4.47;;;1.73;;
74363;SDS011;62797;49.740;10.154;2022-09-03T02:06:56;2.97;;;1.83;;
74363;SDS011;62797;49.740;10.154;2022-09-03T02:09:24;5.63;;;2.03;;
74363;SDS011;62797;49.740;10.154;2022-09-03T02:12:02;3.65;;;1.63;;
74363;SDS011;62797;49.740;10.154;2022-09-03T02:14:37;2.97;;;1.70;;
74363;SDS011;62797;49.740;10.154;2022-09-03T02:17:03;2.70;;;1.80;;
74363;SDS011;62797;49.740;10.154;2022-09-03T02:19:31;4.88;;;1.77;;
74363;SDS011;62797;49.740;10.154;2022-09-03T02:21:58;2.45;;;1.55;;
74363;SDS011;62797;49.740;10.154;2022-09-03T02:24:24;2.20;;;1.40;;
74363;SDS011;62797;49.740;10.154;2022-09-03T02:26:52;6.43;;;1.90;;
74363;SDS011;62797;49.740;10.154;2022-09-03T02:29:17;5.88;;;2.03;;
74363;SDS011;62797;49.740;10.154;2022-09-03T02:31:43;2.80;;;1.60;;
74363;SDS011;62797;49.740;10.154;2022-09-03T02:34:09;4.43;;;1.97;;
74363;SDS011;62797;49.740;10.154;2022-09-03T02:36:36;4.28;;;1.45;;
74363;SDS011;62797;49.740;10.154;2022-09-03T02:39:05;6.88;;;1.80;;
74363;SDS011;62797;49.740;10.154;2022-09-03T02:41:31;1.77;;;1.60;;
74363;SDS011;62797;49.740;10.154;2022-09-03T02:46:49;4.80;;;1.90;;
74363;SDS011;62797;49.740;10.154;2022-09-03T02:49:30;1.98;;;1.70;;
74363;SDS011;62797;49.740;10.154;2022-09-03T02:54:34;4.50;;;1.80;;
74363;SDS011;62797;49.740;10.154;2022-09-03T02:57:03;4.97;;;1.73;;
74363;SDS011;62797;49.740;10.154;2022-09-03T03:01:55;3.10;;;1.60;;
74363;SDS011;62797;49.740;10.154;2022-09-03T03:04:21;1.80;;;1.67;;
74363;SDS011;62797;49.740;10.154;2022-09-03T03:06:47;3.75;;;1.95;;
74363;SDS011;62797;49.740;10.154;2022-09-03T03:09:14;2.67;;;1.90;;
74363;SDS011;62797;49.740;10.154;2022-09-03T03:11:43;3.92;;;1.60;;
74363;SDS011;62797;49.740;10.154;2022-09-03T03:14:09;2.80;;;1.77;;
74363;SDS011;62797;49.740;10.154;2022-09-03T03:16:35;9.23;;;2.08;;
74363;SDS011;62797;49.740;10.154;2022-09-03T03:19:01;5.90;;;1.83;;
74363;SDS011;62797;49.740;10.154;2022-09-03T03:21:26;7.27;;;1.83;;
74363;SDS011;62797;49.740;10.154;2022-09-03T03:23:52;1.67;;;1.57;;
74363;SDS011;62797;49.740;10.154;2022-09-03T03:26:18;2.33;;;1.70;;
74363;SDS011;62797;49.740;10.154;2022-09-03T03:28:45;3.35;;;1.95;;
74363;SDS011;62797;49.740;10.154;2022-09-03T03:31:13;4.40;;;1.73;;
74363;SDS011;62797;49.740;10.154;2022-09-03T03:33:41;5.15;;;1.48;;
74363;SDS011;62797;49.740;10.154;2022-09-03T03:36:07;2.25;;;1.77;;
74363;SDS011;62797;49.740;10.154;2022-09-03T03:38:34;2.38;;;1.65;;
74363;SDS011;62797;49.740;10.154;2022-09-03T03:41:19;2.30;;;1.70;;
74363;SDS011;62797;49.740;10.154;2022-09-03T03:43:51;2.97;;;1.55;;
74363;SDS011;62797;49.740;10.154;2022-09-03T03:46:18;6.65;;;1.90;;
74363;SDS011;62797;49.740;10.154;2022-09-03T03:48:46;1.50;;;1.40;;
74363;SDS011;62797;49.740;10.154;2022-09-03T03:51:12;3.33;;;1.70;;
74363;SDS011;62797;49.740;10.154;2022-09-03T03:53:38;1.40;;;1.30;;
74363;SDS011;62797;49.740;10.154;2022-09-03T03:56:05;2.53;;;1.50;;
74363;SDS011;62797;49.740;10.154;2022-09-03T03:58:34;1.98;;;1.48;;
74363;SDS011;62797;49.740;10.154;2022-09-03T04:01:11;1.77;;;1.67;;
74363;SDS011;62797;49.740;10.154;2022-09-03T04:03:41;1.85;;;1.70;;
74363;SDS011;62797;49.740;10.154;2022-09-03T04:06:08;4.43;;;1.88;;
74363;SDS011;62797;49.740;10.154;2022-09-03T04:08:36;2.15;;;1.70;;
74363;SDS011;62797;49.740;10.154;2022-09-03T04:11:03;4.72;;;1.50;;
74363;SDS011;62797;49.740;10.154;2022-09-03T04:13:31;2.78;;;1.77;;
74363;SDS011;62797;49.740;10.154;2022-09-03T04:16:01;4.80;;;3.15;;
74363;SDS011;62797;49.740;10.154;2022-09-03T04:18:29;4.65;;;1.90;;
74363;SDS011;62797;49.740;10.154;2022-09-03T04:21:06;3.72;;;1.83;;
74363;SDS011;62797;49.740;10.154;2022-09-03T04:23:34;3.35;;;1.63;;
74363;SDS011;62797;49.740;10.154;2022-09-03T04:26:01;5.10;;;2.55;;
74363;SDS011;62797;49.740;10.154;2022-09-03T04:28:27;2.97;;;1.95;;
74363;SDS011;62797;49.740;10.154;2022-09-03T04:30:53;2.55;;;1.70;;
74363;SDS011;62797;49.740;10.154;2022-09-03T04:33:18;2.77;;;2.00;;
74363;SDS011;62797;49.740;10.154;2022-09-03T04:35:44;2.97;;;1.50;;
74363;SDS011;62797;49.740;10.154;2022-09-03T04:38:10;2.28;;;1.67;;
74363;SDS011;62797;49.740;10.154;2022-09-03T04:40:36;2.17;;;1.73;;
74363;SDS011;62797;49.740;10.154;2022-09-03T04:43:02;3.50;;;2.10;;
74363;SDS011;62797;49.740;10.154;2022-09-03T04:45:28;5.22;;;1.90;;
74363;SDS011;62797;49.740;10.154;2022-09-03T04:48:03;2.83;;;1.83;;
74363;SDS011;62797;49.740;10.154;2022-09-03T04:50:29;5.22;;;2.00;;
74363;SDS011;62797;49.740;10.154;2022-09-03T04:53:00;2.28;;;1.48;;
74363;SDS011;62797;49.740;10.154;2022-09-03T04:55:27;2.05;;;1.58;;
74363;SDS011;62797;49.740;10.154;2022-09-03T04:58:00;2.53;;;1.63;;
74363;SDS011;62797;49.740;10.154;2022-09-03T05:00:26;3.33;;;1.50;;
74363;SDS011;62797;49.740;10.154;2022-09-03T05:02:52;1.98;;;1.50;;
74363;SDS011;62797;49.740;10.154;2022-09-03T05:05:18;2.57;;;1.70;;
74363;SDS011;62797;49.740;10.154;2022-09-03T05:07:44;2.00;;;1.60;;
74363;SDS011;62797;49.740;10.154;2022-09-03T05:10:10;3.93;;;1.87;;
74363;SDS011;62797;49.740;10.154;2022-09-03T05:12:37;1.80;;;1.45;;
74363;SDS011;62797;49.740;10.154;2022-09-03T05:15:03;3.00;;;1.60;;
74363;SDS011;62797;49.740;10.154;2022-09-03T05:17:29;2.00;;;1.60;;
74363;SDS011;62797;49.740;10.154;2022-09-03T05:19:55;5.37;;;2.00;;
74363;SDS011;62797;49.740;10.154;2022-09-03T05:24:47;3.83;;;2.47;;
74363;SDS011;62797;49.740;10.154;2022-09-03T05:27:13;2.77;;;1.90;;
74363;SDS011;62797;49.740;10.154;2022-09-03T05:29:41;3.97;;;1.73;;
74363;SDS011;62797;49.740;10.154;2022-09-03T05:34:32;6.30;;;2.15;;
74363;SDS011;62797;49.740;10.154;2022-09-03T05:36:58;2.67;;;1.77;;
74363;SDS011;62797;49.740;10.154;2022-09-03T05:39:23;11.20;;;1.73;;
74363;SDS011;62797;49.740;10.154;2022-09-03T05:41:49;1.70;;;1.60;;
74363;SDS011;62797;49.740;10.154;2022-09-03T05:44:17;4.05;;;2.30;;
74363;SDS011;62797;49.740;10.154;2022-09-03T05:46:42;4.53;;;2.30;;
74363;SDS011;62797;49.740;10.154;2022-09-03T05:49:08;3.73;;;2.10;;
74363;SDS011;62797;49.740;10.154;2022-09-03T05:51:36;4.63;;;2.97;;
74363;SDS011;62797;49.740;10.154;2022-09-03T05:54:05;3.38;;;2.45;;
74363;SDS011;62797;49.740;10.154;2022-09-03T05:56:32;6.05;;;2.08;;
74363;SDS011;62797;49.740;10.154;2022-09-03T05:59:00;5.18;;;2.13;;
74363;SDS011;62797;49.740;10.154;2022-09-03T06:01:33;2.97;;;1.98;;
74363;SDS011;62797;49.740;10.154;2022-09-03T06:04:04;5.63;;;1.85;;
74363;SDS011;62797;49.740;10.154;2022-09-03T06:06:32;2.30;;;2.10;;
74363;SDS011;62797;49.740;10.154;2022-09-03T06:09:01;2.17;;;1.70;;
74363;SDS011;62797;49.740;10.154;2022-09-03T06:11:28;2.60;;;1.60;;
74363;SDS011;62797;49.740;10.154;2022-09-03T06:14:00;3.65;;;1.50;;
74363;SDS011;62797;49.740;10.154;2022-09-03T06:16:27;2.80;;;1.75;;
74363;SDS011;62797;49.740;10.154;2022-09-03T06:18:53;3.25;;;1.40;;
74363;SDS011;62797;49.740;10.154;2022-09-03T06:21:19;2.42;;;2.08;;
74363;SDS011;62797;49.740;10.154;2022-09-03T06:23:49;5.03;;;1.65;;
74363;SDS011;62797;49.740;10.154;2022-09-03T06:26:16;2.40;;;1.60;;
74363;SDS011;62797;49.740;10.154;2022-09-03T06:28:42;1.80;;;1.70;;
74363;SDS011;62797;49.740;10.154;2022-09-03T06:31:09;2.70;;;1.77;;
74363;SDS011;62797;49.740;10.154;2022-09-03T06:33:36;4.03;;;2.03;;
74363;SDS011;62797;49.740;10.154;2022-09-03T06:36:04;3.17;;;1.95;;
74363;SDS011;62797;49.740;10.154;2022-09-03T06:38:32;4.90;;;1.83;;
74363;SDS011;62797;49.740;10.154;2022-09-03T06:41:03;2.50;;;1.38;;
74363;SDS011;62797;49.740;10.154;2022-09-03T06:43:31;3.22;;;1.60;;
74363;SDS011;62797;49.740;10.154;2022-09-03T06:46:00;3.13;;;1.83;;
74363;SDS011;62797;49.740;10.154;2022-09-03T06:48:28;2.42;;;1.65;;
74363;SDS011;62797;49.740;10.154;2022-09-03T06:50:56;7.00;;;2.60;;
74363;SDS011;62797;49.740;10.154;2022-09-03T06:53:24;3.72;;;1.67;;
74363;SDS011;62797;49.740;10.154;2022-09-03T06:58:19;7.70;;;2.25;;
74363;SDS011;62797;49.740;10.154;2022-09-03T07:03:11;3.25;;;2.00;;
74363;SDS011;62797;49.740;10.154;2022-09-03T07:05:37;3.13;;;1.80;;
74363;SDS011;62797;49.740;10.154;2022-09-03T07:08:02;4.50;;;1.97;;
74363;SDS011;62797;49.740;10.154;2022-09-03T07:10:28;1.77;;;1.47;;
74363;SDS011;62797;49.740;10.154;2022-09-03T07:12:53;1.60;;;1.47;;
74363;SDS011;62797;49.740;10.154;2022-09-03T07:15:20;1.92;;;1.65;;
74363;SDS011;62797;49.740;10.154;2022-09-03T07:17:45;3.63;;;1.70;;
74363;SDS011;62797;49.740;10.154;2022-09-03T07:20:11;5.67;;;2.10;;
74363;SDS011;62797;49.740;10.154;2022-09-03T07:22:36;2.67;;;1.40;;
74363;SDS011;62797;49.740;10.154;2022-09-03T07:25:02;2.40;;;1.80;;
74363;SDS011;62797;49.740;10.154;2022-09-03T07:27:27;2.00;;;1.75;;
74363;SDS011;62797;49.740;10.154;2022-09-03T07:29:54;3.38;;;1.38;;
74363;SDS011;62797;49.740;10.154;2022-09-03T07:32:19;3.10;;;1.47;;
74363;SDS011;62797;49.740;10.154;2022-09-03T07:34:45;4.47;;;1.73;;
74363;SDS011;62797;49.740;10.154;2022-09-03T07:37:10;2.60;;;1.40;;
74363;SDS011;62797;49.740;10.154;2022-09-03T07:39:36;1.90;;;1.70;;
74363;SDS011;62797;49.740;10.154;2022-09-03T07:42:01;2.67;;;1.90;;
74363;SDS011;62797;49.740;10.154;2022-09-03T07:44:27;2.70;;;1.77;;
74363;SDS011;62797;49.740;10.154;2022-09-03T07:46:53;9.27;;;2.53;;
74363;SDS011;62797;49.740;10.154;2022-09-03T07:49:19;3.28;;;1.80;;
74363;SDS011;62797;49.740;10.154;2022-09-03T07:51:45;7.18;;;1.60;;
74363;SDS011;62797;49.740;10.154;2022-09-03T07:54:14;4.53;;;2.40;;
74363;SDS011;62797;49.740;10.154;2022-09-03T07:56:40;9.37;;;2.37;;
74363;SDS011;62797;49.740;10.154;2022-09-03T07:59:05;3.60;;;1.73;;
74363;SDS011;62797;49.740;10.154;2022-09-03T08:01:32;2.22;;;1.50;;
74363;SDS011;62797;49.740;10.154;2022-09-03T08:06:26;2.75;;;2.00;;
74363;SDS011;62797;49.740;10.154;2022-09-03T08:08:56;5.43;;;2.20;;
74363;SDS011;62797;49.740;10.154;2022-09-03T08:11:24;2.70;;;2.03;;
74363;SDS011;62797;49.740;10.154;2022-09-03T08:13:57;4.10;;;1.70;;
74363;SDS011;62797;49.740;10.154;2022-09-03T08:16:27;4.88;;;3.03;;
74363;SDS011;62797;49.740;10.154;2022-09-03T08:18:58;2.78;;;2.38;;
74363;SDS011;62797;49.740;10.154;2022-09-03T08:21:24;4.22;;;2.40;;
74363;SDS011;62797;49.740;10.154;2022-09-03T08:23:51;4.53;;;2.40;;
74363;SDS011;62797;49.740;10.154;2022-09-03T08:26:20;2.55;;;2.13;;
74363;SDS011;62797;49.740;10.154;2022-09-03T08:28:47;5.60;;;2.38;;
74363;SDS011;62797;49.740;10.154;2022-09-03T08:31:17;3.60;;;1.77;;
74363;SDS011;62797;49.740;10.154;2022-09-03T08:33:45;5.15;;;1.90;;
74363;SDS011;62797;49.740;10.154;2022-09-03T08:36:13;2.30;;;1.75;;
74363;SDS011;62797;49.740;10.154;2022-09-03T08:38:40;3.67;;;1.95;;
74363;SDS011;62797;49.740;10.154;2022-09-03T08:43:46;3.17;;;2.60;;
74363;SDS011;62797;49.740;10.154;2022-09-03T08:46:26;4.70;;;2.25;;
74363;SDS011;62797;49.740;10.154;2022-09-03T08:49:17;2.88;;;1.75;;
74363;SDS011;62797;49.740;10.154;2022-09-03T08:51:48;3.35;;;1.98;;
74363;SDS011;62797;49.740;10.154;2022-09-03T08:54:16;3.28;;;2.28;;
74363;SDS011;62797;49.740;10.154;2022-09-03T08:56:45;4.30;;;2.20;;
74363;SDS011;62797;49.740;10.154;2022-09-03T08:59:11;9.80;;;1.90;;
74363;SDS011;62797;49.740;10.154;2022-09-03T09:04:56;2.22;;;1.70;;
74363;SDS011;62797;49.740;10.154;2022-09-03T09:07:35;3.33;;;1.95;;
74363;SDS011;62797;49.740;10.154;2022-09-03T09:13:26;3.30;;;1.90;;
74363;SDS011;62797;49.740;10.154;2022-09-03T09:19:15;3.40;;;2.10;;
74363;SDS011;62797;49.740;10.154;2022-09-03T09:22:09;5.05;;;2.13;;
74363;SDS011;62797;49.740;10.154;2022-09-03T09:24:44;2.53;;;1.98;;
74363;SDS011;62797;49.740;10.154;2022-09-03T09:27:12;2.67;;;1.92;;
74363;SDS011;62797;49.740;10.154;2022-09-03T09:29:42;3.17;;;2.10;;
74363;SDS011;62797;49.740;10.154;2022-09-03T09:32:12;5.35;;;1.95;;
74363;SDS011;62797;49.740;10.154;2022-09-03T09:34:41;2.55;;;1.90;;
74363;SDS011;62797;49.740;10.154;2022-09-03T09:37:08;2.63;;;1.83;;
74363;SDS011;62797;49.740;10.154;2022-09-03T09:39:35;9.40;;;2.30;;
74363;SDS011;62797;49.740;10.154;2022-09-03T09:42:04;3.80;;;1.75;;
74363;SDS011;62797;49.740;10.154;2022-09-03T09:44:35;2.13;;;1.67;;
74363;SDS011;62797;49.740;10.154;2022-09-03T09:47:03;4.15;;;2.00;;
74363;SDS011;62797;49.740;10.154;2022-09-03T09:49:34;7.05;;;2.10;;
74363;SDS011;62797;49.740;10.154;2022-09-03T09:54:36;2.67;;;1.70;;
74363;SDS011;62797;49.740;10.154;2022-09-03T09:57:06;9.85;;;2.20;;
74363;SDS011;62797;49.740;10.154;2022-09-03T09:59:38;2.28;;;1.50;;
74363;SDS011;62797;49.740;10.154;2022-09-03T10:04:37;1.95;;;1.73;;
74363;SDS011;62797;49.740;10.154;2022-09-03T10:07:15;2.83;;;1.50;;
74363;SDS011;62797;49.740;10.154;2022-09-03T10:09:56;3.85;;;1.58;;
74363;SDS011;62797;49.740;10.154;2022-09-03T10:12:40;2.35;;;1.70;;
74363;SDS011;62797;49.740;10.154;2022-09-03T10:15:26;2.13;;;1.90;;
74363;SDS011;62797;49.740;10.154;2022-09-03T10:18:07;3.33;;;1.60;;
74363;SDS011;62797;49.740;10.154;2022-09-03T10:26:01;3.20;;;2.10;;
74363;SDS011;62797;49.740;10.154;2022-09-03T10:28:38;3.78;;;1.88;;
74363;SDS011;62797;49.740;10.154;2022-09-03T10:33:55;2.30;;;1.90;;
74363;SDS011;62797;49.740;10.154;2022-09-03T10:36:39;4.20;;;1.58;;
74363;SDS011;62797;49.740;10.154;2022-09-03T10:48:28;6.50;;;2.00;;
74363;SDS011;62797;49.740;10.154;2022-09-03T10:51:17;5.88;;;2.22;;
74363;SDS011;62797;49.740;10.154;2022-09-03T10:56:29;3.03;;;2.10;;
74363;SDS011;62797;49.740;10.154;2022-09-03T11:07:11;2.30;;;1.77;;
74363;SDS011;62797;49.740;10.154;2022-09-03T11:09:40;3.17;;;1.80;;
74363;SDS011;62797;49.740;10.154;2022-09-03T11:12:17;5.25;;;1.90;;
74363;SDS011;62797;49.740;10.154;2022-09-03T11:14:52;2.50;;;1.90;;
74363;SDS011;62797;49.740;10.154;2022-09-03T11:17:33;2.97;;;2.03;;
74363;SDS011;62797;49.740;10.154;2022-09-03T11:20:18;4.57;;;2.17;;
74363;SDS011;62797;49.740;10.154;2022-09-03T11:22:47;5.22;;;2.25;;
74363;SDS011;62797;49.740;10.154;2022-09-03T11:25:16;2.95;;;1.98;;
74363;SDS011;62797;49.740;10.154;2022-09-03T11:27:51;6.70;;;1.70;;
74363;SDS011;62797;49.740;10.154;2022-09-03T11:30:28;3.33;;;1.83;;
74363;SDS011;62797;49.740;10.154;2022-09-03T11:33:07;5.07;;;1.90;;
74363;SDS011;62797;49.740;10.154;2022-09-03T11:38:02;5.67;;;1.87;;
74363;SDS011;62797;49.740;10.154;2022-09-03T11:40:42;5.00;;;2.38;;
74363;SDS011;62797;49.740;10.154;2022-09-03T11:45:48;4.20;;;3.70;;
74363;SDS011;62797;49.740;10.154;2022-09-03T11:48:18;4.32;;;2.05;;
74363;SDS011;62797;49.740;10.154;2022-09-03T11:54:01;2.40;;;2.20;;
74363;SDS011;62797;49.740;10.154;2022-09-03T11:56:47;2.22;;;1.88;;
74363;SDS011;62797;49.740;10.154;2022-09-03T11:59:18;5.10;;;1.88;;
74363;SDS011;62797;49.740;10.154;2022-09-03T12:01:50;3.55;;;1.90;;
74363;SDS011;62797;49.740;10.154;2022-09-03T12:04:59;6.03;;;2.20;;
74363;SDS011;62797;49.740;10.154;2022-09-03T12:07:47;3.80;;;1.90;;
74363;SDS011;62797;49.740;10.154;2022-09-03T12:13:25;3.40;;;2.90;;
74363;SDS011;62797;49.740;10.154;2022-09-03T12:16:29;3.58;;;2.60;;
74363;SDS011;62797;49.740;10.154;2022-09-03T12:19:20;2.25;;;1.85;;
74363;SDS011;62797;49.740;10.154;2022-09-03T12:22:15;2.65;;;2.17;;
74363;SDS011;62797;49.740;10.154;2022-09-03T12:24:42;4.43;;;2.28;;
74363;SDS011;62797;49.740;10.154;2022-09-03T12:27:15;4.88;;;2.10;;
74363;SDS011;62797;49.740;10.154;2022-09-03T12:29:56;4.35;;;2.13;;
74363;SDS011;62797;49.740;10.154;2022-09-03T12:32:24;4.60;;;1.98;;
74363;SDS011;62797;49.740;10.154;2022-09-03T12:35:09;2.85;;;2.17;;
74363;SDS011;62797;49.740;10.154;2022-09-03T12:37:43;2.80;;;2.22;;
74363;SDS011;62797;49.740;10.154;2022-09-03T12:40:17;3.67;;;2.33;;
74363;SDS011;62797;49.740;10.154;2022-09-03T12:42:45;6.97;;;2.30;;
74363;SDS011;62797;49.740;10.154;2022-09-03T12:45:11;3.05;;;2.50;;
74363;SDS011;62797;49.740;10.154;2022-09-03T12:47:40;3.63;;;2.78;;
74363;SDS011;62797;49.740;10.154;2022-09-03T12:50:10;3.13;;;2.30;;
74363;SDS011;62797;49.740;10.154;2022-09-03T12:57:41;4.28;;;1.85;;
74363;SDS011;62797;49.740;10.154;2022-09-03T13:00:12;2.35;;;2.03;;
74363;SDS011;62797;49.740;10.154;2022-09-03T13:02:41;4.05;;;2.10;;
74363;SDS011;62797;49.740;10.154;2022-09-03T13:05:15;2.28;;;2.00;;
74363;SDS011;62797;49.740;10.154;2022-09-03T13:07:48;2.55;;;2.25;;
74363;SDS011;62797;49.740;10.154;2022-09-03T13:10:23;2.30;;;2.05;;
74363;SDS011;62797;49.740;10.154;2022-09-03T13:12:56;2.92;;;2.45;;
74363;SDS011;62797;49.740;10.154;2022-09-03T13:15:23;2.50;;;1.73;;
74363;SDS011;62797;49.740;10.154;2022-09-03T13:18:00;2.50;;;1.90;;
74363;SDS011;62797;49.740;10.154;2022-09-03T13:26:19;3.42;;;2.20;;
74363;SDS011;62797;49.740;10.154;2022-09-03T13:32:06;3.33;;;2.22;;
74363;SDS011;62797;49.740;10.154;2022-09-03T13:34:53;6.38;;;2.25;;
74363;SDS011;62797;49.740;10.154;2022-09-03T13:42:56;3.88;;;2.55;;
74363;SDS011;62797;49.740;10.154;2022-09-03T13:45:30;2.55;;;2.10;;
74363;SDS011;62797;49.740;10.154;2022-09-03T13:56:45;4.20;;;2.40;;
74363;SDS011;62797;49.740;10.154;2022-09-03T13:59:18;10.90;;;2.55;;
74363;SDS011;62797;49.740;10.154;2022-09-03T14:04:33;2.95;;;2.17;;
74363;SDS011;62797;49.740;10.154;2022-09-03T14:07:16;3.63;;;2.40;;
74363;SDS011;62797;49.740;10.154;2022-09-03T14:15:00;4.97;;;2.10;;
74363;SDS011;62797;49.740;10.154;2022-09-03T14:17:45;4.80;;;2.03;;
74363;SDS011;62797;49.740;10.154;2022-09-03T14:20:33;3.92;;;2.20;;
74363;SDS011;62797;49.740;10.154;2022-09-03T14:23:27;2.88;;;1.90;;
74363;SDS011;62797;49.740;10.154;2022-09-03T14:26:04;6.35;;;1.70;;
74363;SDS011;62797;49.740;10.154;2022-09-03T14:28:39;5.55;;;2.13;;
74363;SDS011;62797;49.740;10.154;2022-09-03T14:47:50;4.13;;;2.30;;
74363;SDS011;62797;49.740;10.154;2022-09-03T14:50:43;3.60;;;2.22;;
74363;SDS011;62797;49.740;10.154;2022-09-03T15:02:07;7.50;;;2.40;;
74363;SDS011;62797;49.740;10.154;2022-09-03T15:05:02;2.58;;;1.85;;
74363;SDS011;62797;49.740;10.154;2022-09-03T15:10:22;2.70;;;1.95;;
74363;SDS011;62797;49.740;10.154;2022-09-03T15:13:07;2.20;;;1.90;;
74363;SDS011;62797;49.740;10.154;2022-09-03T15:21:23;3.53;;;1.90;;
74363;SDS011;62797;49.740;10.154;2022-09-03T15:29:37;5.38;;;1.73;;
74363;SDS011;62797;49.740;10.154;2022-09-03T15:32:26;3.35;;;1.88;;
74363;SDS011;62797;49.740;10.154;2022-09-03T15:35:07;3.10;;;2.28;;
74363;SDS011;62797;49.740;10.154;2022-09-03T15:37:36;1.77;;;1.60;;
74363;SDS011;62797;49.740;10.154;2022-09-03T15:42:50;3.30;;;1.98;;
74363;SDS011;62797;49.740;10.154;2022-09-03T15:45:32;3.25;;;1.98;;
74363;SDS011;62797;49.740;10.154;2022-09-03T15:48:09;3.58;;;1.90;;
74363;SDS011;62797;49.740;10.154;2022-09-03T15:50:51;4.35;;;1.73;;
74363;SDS011;62797;49.740;10.154;2022-09-03T15:53:31;5.45;;;2.47;;
74363;SDS011;62797;49.740;10.154;2022-09-03T15:58:37;2.95;;;2.15;;
74363;SDS011;62797;49.740;10.154;2022-09-03T16:01:18;3.28;;;2.83;;
74363;SDS011;62797;49.740;10.154;2022-09-03T16:09:42;5.28;;;2.70;;
74363;SDS011;62797;49.740;10.154;2022-09-03T16:12:09;3.08;;;2.13;;
74363;SDS011;62797;49.740;10.154;2022-09-03T16:14:56;7.63;;;2.50;;
74363;SDS011;62797;49.740;10.154;2022-09-03T16:22:30;5.60;;;2.30;;
74363;SDS011;62797;49.740;10.154;2022-09-03T16:25:06;6.40;;;2.10;;
74363;SDS011;62797;49.740;10.154;2022-09-03T16:27:51;1.90;;;1.80;;
74363;SDS011;62797;49.740;10.154;2022-09-03T16:33:41;4.13;;;1.95;;
74363;SDS011;62797;49.740;10.154;2022-09-03T16:38:59;2.28;;;2.00;;
74363;SDS011;62797;49.740;10.154;2022-09-03T16:44:58;5.43;;;2.00;;
74363;SDS011;62797;49.740;10.154;2022-09-03T16:47:54;2.08;;;1.80;;
74363;SDS011;62797;49.740;10.154;2022-09-03T16:50:49;4.22;;;2.30;;
74363;SDS011;62797;49.740;10.154;2022-09-03T16:59:03;11.23;;;4.68;;
74363;SDS011;62797;49.740;10.154;2022-09-03T17:01:54;6.80;;;2.90;;
74363;SDS011;62797;49.740;10.154;2022-09-03T17:22:05;2.97;;;1.63;;
74363;SDS011;62797;49.740;10.154;2022-09-03T17:24:46;4.25;;;2.35;;
74363;SDS011;62797;49.740;10.154;2022-09-03T17:27:25;4.80;;;1.90;;
74363;SDS011;62797;49.740;10.154;2022-09-03T17:37:57;7.67;;;3.53;;
74363;SDS011;62797;49.740;10.154;2022-09-03T17:41:06;9.68;;;3.42;;
74363;SDS011;62797;49.740;10.154;2022-09-03T17:46:30;3.58;;;2.20;;
74363;SDS011;62797;49.740;10.154;2022-09-03T17:49:06;5.07;;;2.20;;
74363;SDS011;62797;49.740;10.154;2022-09-03T17:51:34;4.15;;;2.30;;
74363;SDS011;62797;49.740;10.154;2022-09-03T17:56:55;4.55;;;2.63;;
74363;SDS011;62797;49.740;10.154;2022-09-03T18:02:08;10.73;;;8.30;;
74363;SDS011;62797;49.740;10.154;2022-09-03T18:04:41;23.10;;;15.27;;
74363;SDS011;62797;49.740;10.154;2022-09-03T18:07:20;17.05;;;12.40;;
74363;SDS011;62797;49.740;10.154;2022-09-03T18:10:05;9.35;;;4.85;;
74363;SDS011;62797;49.740;10.154;2022-09-03T18:15:38;5.93;;;2.70;;
74363;SDS011;62797;49.740;10.154;2022-09-03T18:18:28;3.95;;;2.83;;
74363;SDS011;62797;49.740;10.154;2022-09-03T18:20:56;6.20;;;2.53;;
74363;SDS011;62797;49.740;10.154;2022-09-03T18:24:04;3.50;;;2.50;;
74363;SDS011;62797;49.740;10.154;2022-09-03T18:26:57;7.22;;;3.53;;
74363;SDS011;62797;49.740;10.154;2022-09-03T18:29:53;5.00;;;2.70;;
74363;SDS011;62797;49.740;10.154;2022-09-03T18:32:44;5.88;;;2.17;;
74363;SDS011;62797;49.740;10.154;2022-09-03T18:35:29;1.98;;;1.55;;
74363;SDS011;62797;49.740;10.154;2022-09-03T18:38:17;5.45;;;2.05;;
74363;SDS011;62797;49.740;10.154;2022-09-03T18:44:28;8.10;;;2.42;;
74363;SDS011;62797;49.740;10.154;2022-09-03T18:47:31;15.63;;;2.50;;
74363;SDS011;62797;49.740;10.154;2022-09-03T18:57:08;9.40;;;3.17;;
74363;SDS011;62797;49.740;10.154;2022-09-03T19:09:02;5.28;;;3.40;;
74363;SDS011;62797;49.740;10.154;2022-09-03T19:15:40;5.85;;;3.35;;
74363;SDS011;62797;49.740;10.154;2022-09-03T19:18:47;9.15;;;3.45;;
74363;SDS011;62797;49.740;10.154;2022-09-03T19:21:38;6.57;;;3.63;;
74363;SDS011;62797;49.740;10.154;2022-09-03T19:24:30;8.65;;;5.03;;
74363;SDS011;62797;49.740;10.154;2022-09-03T19:30:33;7.72;;;3.78;;
74363;SDS011;62797;49.740;10.154;2022-09-03T19:33:42;12.18;;;3.78;;
74363;SDS011;62797;49.740;10.154;2022-09-03T19:36:36;14.82;;;4.10;;
74363;SDS011;62797;49.740;10.154;2022-09-03T19:39:42;4.85;;;3.53;;
74363;SDS011;62797;49.740;10.154;2022-09-03T19:43:01;8.80;;;4.47;;
74363;SDS011;62797;49.740;10.154;2022-09-03T19:52:06;5.35;;;3.92;;
74363;SDS011;62797;49.740;10.154;2022-09-03T19:58:03;10.40;;;4.80;;
74363;SDS011;62797;49.740;10.154;2022-09-03T20:00:48;5.95;;;3.75;;
74363;SDS011;62797;49.740;10.154;2022-09-03T20:03:33;8.50;;;3.97;;
74363;SDS011;62797;49.740;10.154;2022-09-03T20:06:17;15.93;;;6.10;;
74363;SDS011;62797;49.740;10.154;2022-09-03T20:09:04;7.57;;;4.68;;
74363;SDS011;62797;49.740;10.154;2022-09-03T20:11:51;6.65;;;4.50;;
74363;SDS011;62797;49.740;10.154;2022-09-03T20:14:20;7.10;;;4.00;;
74363;SDS011;62797;49.740;10.154;2022-09-03T20:16:55;6.80;;;3.90;;